sensor_id;sensor_type;location;lat;lon;timestamp;temperature;humidity
1504;DHT22;743;47.076;15.494;2022-10-16T00:01:58;13.80;1.00
1504;DHT22;743;47.076;15.494;2022-10-16T00:04:28;13.80;1.00
1504;DHT22;743;47.076;15.494;2022-10-16T00:06:58;13.80;1.00
1504;DHT22;743;47.076;15.494;2022-10-16T00:09:27;13.70;1.00
1504;DHT22;743;47.076;15.494;2022-10-16T00:11:56;13.60;1.00
1504;DHT22;743;47.076;15.494;2022-10-16T00:14:26;13.90;1.00
1504;DHT22;743;47.076;15.494;2022-10-16T00:16:54;13.80;1.00
1504;DHT22;743;47.076;15.494;2022-10-16T00:19:21;13.80;1.00
1504;DHT22;743;47.076;15.494;2022-10-16T00:21:51;13.60;1.00
1504;DHT22;743;47.076;15.494;2022-10-16T00:24:21;13.70;1.00
1504;DHT22;743;47.076;15.494;2022-10-16T00:26:51;13.80;1.00
1504;DHT22;743;47.076;15.494;2022-10-16T00:29:17;13.80;1.00
1504;DHT22;743;47.076;15.494;2022-10-16T00:31:45;13.60;1.00
1504;DHT22;743;47.076;15.494;2022-10-16T00:36:40;13.80;1.00
1504;DHT22;743;47.076;15.494;2022-10-16T00:39:08;13.70;1.00
1504;DHT22;743;47.076;15.494;2022-10-16T00:41:37;13.90;1.00
1504;DHT22;743;47.076;15.494;2022-10-16T00:46:50;13.70;1.00
1504;DHT22;743;47.076;15.494;2022-10-16T00:51:46;13.80;1.00
1504;DHT22;743;47.076;15.494;2022-10-16T00:56:50;13.90;1.00
1504;DHT22;743;47.076;15.494;2022-10-16T00:59:19;13.80;1.00
1504;DHT22;743;47.076;15.494;2022-10-16T01:01:48;13.90;1.00
1504;DHT22;743;47.076;15.494;2022-10-16T01:04:15;14.00;1.00
1504;DHT22;743;47.076;15.494;2022-10-16T01:06:46;14.30;1.00
1504;DHT22;743;47.076;15.494;2022-10-16T01:09:17;14.00;1.00
1504;DHT22;743;47.076;15.494;2022-10-16T01:11:54;13.90;1.00
1504;DHT22;743;47.076;15.494;2022-10-16T01:14:26;14.00;1.00
1504;DHT22;743;47.076;15.494;2022-10-16T01:16:57;13.70;1.00
1504;DHT22;743;47.076;15.494;2022-10-16T01:19:35;13.70;1.00
1504;DHT22;743;47.076;15.494;2022-10-16T01:22:03;13.70;1.00
1504;DHT22;743;47.076;15.494;2022-10-16T01:24:37;13.70;1.00
1504;DHT22;743;47.076;15.494;2022-10-16T01:27:12;13.70;1.00
1504;DHT22;743;47.076;15.494;2022-10-16T01:29:42;13.80;1.00
1504;DHT22;743;47.076;15.494;2022-10-16T01:32:15;13.70;1.00
1504;DHT22;743;47.076;15.494;2022-10-16T01:34:45;13.50;1.00
1504;DHT22;743;47.076;15.494;2022-10-16T01:37:15;13.60;1.00
1504;DHT22;743;47.076;15.494;2022-10-16T01:39:45;13.40;1.00
1504;DHT22;743;47.076;15.494;2022-10-16T01:44:43;13.60;1.00
1504;DHT22;743;47.076;15.494;2022-10-16T01:47:11;13.60;1.00
1504;DHT22;743;47.076;15.494;2022-10-16T01:49:41;13.70;1.00
1504;DHT22;743;47.076;15.494;2022-10-16T01:52:11;13.70;1.00
1504;DHT22;743;47.076;15.494;2022-10-16T01:54:40;13.70;1.00
1504;DHT22;743;47.076;15.494;2022-10-16T01:57:11;13.70;1.00
1504;DHT22;743;47.076;15.494;2022-10-16T01:59:43;13.90;1.00
1504;DHT22;743;47.076;15.494;2022-10-16T02:02:11;13.80;1.00
1504;DHT22;743;47.076;15.494;2022-10-16T02:09:34;13.70;1.00
1504;DHT22;743;47.076;15.494;2022-10-16T02:12:03;13.70;1.00
1504;DHT22;743;47.076;15.494;2022-10-16T02:17:09;13.70;1.00
1504;DHT22;743;47.076;15.494;2022-10-16T02:19:36;13.70;1.00
1504;DHT22;743;47.076;15.494;2022-10-16T02:22:06;13.80;1.00
1504;DHT22;743;47.076;15.494;2022-10-16T02:27:09;14.00;1.00
1504;DHT22;743;47.076;15.494;2022-10-16T02:29:38;13.80;1.00
1504;DHT22;743;47.076;15.494;2022-10-16T02:32:13;13.70;1.00
1504;DHT22;743;47.076;15.494;2022-10-16T02:34:42;13.90;1.00
1504;DHT22;743;47.076;15.494;2022-10-16T02:39:38;14.00;1.00
1504;DHT22;743;47.076;15.494;2022-10-16T02:42:09;14.20;1.00
1504;DHT22;743;47.076;15.494;2022-10-16T02:47:13;14.10;1.00
1504;DHT22;743;47.076;15.494;2022-10-16T02:49:42;13.70;1.00
1504;DHT22;743;47.076;15.494;2022-10-16T02:52:10;13.50;1.00
1504;DHT22;743;47.076;15.494;2022-10-16T02:54:37;13.90;1.00
1504;DHT22;743;47.076;15.494;2022-10-16T02:57:04;13.70;1.00
1504;DHT22;743;47.076;15.494;2022-10-16T03:11:52;13.70;1.00
1504;DHT22;743;47.076;15.494;2022-10-16T03:14:21;13.30;1.00
1504;DHT22;743;47.076;15.494;2022-10-16T03:16:50;13.50;1.00
1504;DHT22;743;47.076;15.494;2022-10-16T03:21:46;13.50;1.00
1504;DHT22;743;47.076;15.494;2022-10-16T03:24:13;13.10;1.00
1504;DHT22;743;47.076;15.494;2022-10-16T03:26:41;12.90;1.00
1504;DHT22;743;47.076;15.494;2022-10-16T03:29:13;13.30;1.00
1504;DHT22;743;47.076;15.494;2022-10-16T03:31:42;13.10;1.00
1504;DHT22;743;47.076;15.494;2022-10-16T03:34:09;13.30;1.00
1504;DHT22;743;47.076;15.494;2022-10-16T03:36:37;13.10;1.00
1504;DHT22;743;47.076;15.494;2022-10-16T03:39:04;13.10;1.00
1504;DHT22;743;47.076;15.494;2022-10-16T03:41:32;13.20;99.90
1504;DHT22;743;47.076;15.494;2022-10-16T03:44:00;13.30;99.90
1504;DHT22;743;47.076;15.494;2022-10-16T03:46:28;13.20;99.90
1504;DHT22;743;47.076;15.494;2022-10-16T03:48:59;13.40;99.90
1504;DHT22;743;47.076;15.494;2022-10-16T03:51:27;13.70;1.00
1504;DHT22;743;47.076;15.494;2022-10-16T03:53:54;13.60;1.00
1504;DHT22;743;47.076;15.494;2022-10-16T03:56:22;13.50;1.00
1504;DHT22;743;47.076;15.494;2022-10-16T03:58:49;13.40;1.00
1504;DHT22;743;47.076;15.494;2022-10-16T04:01:16;13.70;1.00
1504;DHT22;743;47.076;15.494;2022-10-16T04:03:47;13.40;1.00
1504;DHT22;743;47.076;15.494;2022-10-16T04:06:14;13.40;1.00
1504;DHT22;743;47.076;15.494;2022-10-16T04:08:42;13.50;1.00
1504;DHT22;743;47.076;15.494;2022-10-16T04:11:18;13.60;1.00
1504;DHT22;743;47.076;15.494;2022-10-16T04:13:45;13.60;29.50
1504;DHT22;743;47.076;15.494;2022-10-16T04:16:12;13.40;99.90
1504;DHT22;743;47.076;15.494;2022-10-16T04:18:39;13.50;99.90
1504;DHT22;743;47.076;15.494;2022-10-16T04:23:36;13.30;99.90
1504;DHT22;743;47.076;15.494;2022-10-16T04:26:03;13.40;99.90
1504;DHT22;743;47.076;15.494;2022-10-16T04:28:32;13.50;99.90
1504;DHT22;743;47.076;15.494;2022-10-16T04:31:03;13.50;99.90
1504;DHT22;743;47.076;15.494;2022-10-16T04:33:31;13.50;99.90
1504;DHT22;743;47.076;15.494;2022-10-16T04:36:03;13.50;84.60
1504;DHT22;743;47.076;15.494;2022-10-16T04:38:31;13.60;99.90
1504;DHT22;743;47.076;15.494;2022-10-16T04:41:00;13.70;1.00
1504;DHT22;743;47.076;15.494;2022-10-16T04:43:26;13.70;1.00
1504;DHT22;743;47.076;15.494;2022-10-16T04:45:54;13.70;1.00
1504;DHT22;743;47.076;15.494;2022-10-16T04:48:21;13.70;1.00
1504;DHT22;743;47.076;15.494;2022-10-16T04:50:49;13.70;1.00
1504;DHT22;743;47.076;15.494;2022-10-16T04:53:16;13.70;1.00
1504;DHT22;743;47.076;15.494;2022-10-16T04:55:45;13.50;1.00
1504;DHT22;743;47.076;15.494;2022-10-16T05:00:47;13.70;1.00
1504;DHT22;743;47.076;15.494;2022-10-16T05:03:16;13.60;1.00
1504;DHT22;743;47.076;15.494;2022-10-16T05:05:45;13.80;1.00
1504;DHT22;743;47.076;15.494;2022-10-16T05:08:14;13.80;1.00
1504;DHT22;743;47.076;15.494;2022-10-16T05:10:44;13.90;1.00
1504;DHT22;743;47.076;15.494;2022-10-16T05:15:40;13.60;1.00
1504;DHT22;743;47.076;15.494;2022-10-16T05:18:09;14.10;1.00
1504;DHT22;743;47.076;15.494;2022-10-16T05:20:38;13.80;1.00
1504;DHT22;743;47.076;15.494;2022-10-16T05:23:07;13.80;1.00
1504;DHT22;743;47.076;15.494;2022-10-16T05:25:35;13.70;1.00
1504;DHT22;743;47.076;15.494;2022-10-16T05:28:06;13.70;1.00
1504;DHT22;743;47.076;15.494;2022-10-16T05:30:33;13.30;1.00
1504;DHT22;743;47.076;15.494;2022-10-16T05:33:00;13.60;1.00
1504;DHT22;743;47.076;15.494;2022-10-16T05:35:30;13.50;1.00
1504;DHT22;743;47.076;15.494;2022-10-16T05:37:59;13.80;1.00
1504;DHT22;743;47.076;15.494;2022-10-16T05:40:27;13.80;1.00
1504;DHT22;743;47.076;15.494;2022-10-16T05:42:56;13.70;1.00
1504;DHT22;743;47.076;15.494;2022-10-16T05:45:24;13.80;1.00
1504;DHT22;743;47.076;15.494;2022-10-16T05:47:53;13.60;1.00
1504;DHT22;743;47.076;15.494;2022-10-16T05:50:20;13.80;1.00
1504;DHT22;743;47.076;15.494;2022-10-16T05:55:16;13.80;1.00
1504;DHT22;743;47.076;15.494;2022-10-16T05:57:44;13.90;1.00
1504;DHT22;743;47.076;15.494;2022-10-16T06:02:39;13.80;1.00
1504;DHT22;743;47.076;15.494;2022-10-16T06:05:07;13.90;1.00
1504;DHT22;743;47.076;15.494;2022-10-16T06:07:34;13.90;1.00
1504;DHT22;743;47.076;15.494;2022-10-16T06:10:02;13.90;1.00
1504;DHT22;743;47.076;15.494;2022-10-16T06:12:35;14.00;99.90
1504;DHT22;743;47.076;15.494;2022-10-16T06:19:59;13.80;1.00
1504;DHT22;743;47.076;15.494;2022-10-16T06:22:45;14.40;1.00
1504;DHT22;743;47.076;15.494;2022-10-16T06:25:14;14.20;99.90
1504;DHT22;743;47.076;15.494;2022-10-16T06:27:44;14.30;99.90
1504;DHT22;743;47.076;15.494;2022-10-16T06:30:13;14.20;99.90
1504;DHT22;743;47.076;15.494;2022-10-16T06:32:41;14.20;99.90
1504;DHT22;743;47.076;15.494;2022-10-16T06:35:16;14.70;99.90
1504;DHT22;743;47.076;15.494;2022-10-16T06:37:42;14.40;99.90
1504;DHT22;743;47.076;15.494;2022-10-16T06:40:11;14.30;99.90
1504;DHT22;743;47.076;15.494;2022-10-16T06:42:40;15.30;99.90
1504;DHT22;743;47.076;15.494;2022-10-16T06:45:09;14.70;99.90
1504;DHT22;743;47.076;15.494;2022-10-16T06:47:36;15.00;99.90
1504;DHT22;743;47.076;15.494;2022-10-16T06:50:04;14.80;99.90
1504;DHT22;743;47.076;15.494;2022-10-16T06:52:32;14.90;99.90
1504;DHT22;743;47.076;15.494;2022-10-16T06:54:59;15.10;1.00
1504;DHT22;743;47.076;15.494;2022-10-16T06:57:26;16.50;1.00
1504;DHT22;743;47.076;15.494;2022-10-16T06:59:53;17.50;99.90
1504;DHT22;743;47.076;15.494;2022-10-16T07:04:49;19.00;99.90
1504;DHT22;743;47.076;15.494;2022-10-16T07:07:16;19.50;1.00
1504;DHT22;743;47.076;15.494;2022-10-16T07:12:10;20.10;1.00
1504;DHT22;743;47.076;15.494;2022-10-16T07:14:37;20.10;1.00
1504;DHT22;743;47.076;15.494;2022-10-16T07:17:04;21.20;1.00
1504;DHT22;743;47.076;15.494;2022-10-16T07:19:31;21.60;1.00
1504;DHT22;743;47.076;15.494;2022-10-16T07:21:59;21.90;1.00
1504;DHT22;743;47.076;15.494;2022-10-16T07:26:54;22.30;1.00
1504;DHT22;743;47.076;15.494;2022-10-16T07:29:20;22.20;1.00
1504;DHT22;743;47.076;15.494;2022-10-16T07:31:53;21.10;1.00
1504;DHT22;743;47.076;15.494;2022-10-16T07:34:21;20.10;1.00
1504;DHT22;743;47.076;15.494;2022-10-16T07:39:31;19.50;1.00
1504;DHT22;743;47.076;15.494;2022-10-16T07:41:59;19.10;1.00
1504;DHT22;743;47.076;15.494;2022-10-16T07:44:25;19.20;1.00
1504;DHT22;743;47.076;15.494;2022-10-16T07:46:53;18.80;1.00
1504;DHT22;743;47.076;15.494;2022-10-16T07:49:20;18.80;1.00
1504;DHT22;743;47.076;15.494;2022-10-16T07:51:47;18.50;1.00
1504;DHT22;743;47.076;15.494;2022-10-16T07:54:14;18.70;1.00
1504;DHT22;743;47.076;15.494;2022-10-16T07:56:43;18.50;1.00
1504;DHT22;743;47.076;15.494;2022-10-16T08:01:37;18.50;1.00
1504;DHT22;743;47.076;15.494;2022-10-16T08:04:08;18.50;1.00
1504;DHT22;743;47.076;15.494;2022-10-16T08:09:07;18.40;1.00
1504;DHT22;743;47.076;15.494;2022-10-16T08:11:35;18.40;1.00
1504;DHT22;743;47.076;15.494;2022-10-16T08:14:04;18.50;1.00
1504;DHT22;743;47.076;15.494;2022-10-16T08:16:32;18.40;1.00
1504;DHT22;743;47.076;15.494;2022-10-16T08:18:59;18.50;1.00
1504;DHT22;743;47.076;15.494;2022-10-16T08:21:27;18.10;1.00
1504;DHT22;743;47.076;15.494;2022-10-16T08:23:56;18.70;1.00
1504;DHT22;743;47.076;15.494;2022-10-16T08:26:24;18.60;1.00
1504;DHT22;743;47.076;15.494;2022-10-16T08:28:53;18.70;1.00
1504;DHT22;743;47.076;15.494;2022-10-16T08:33:51;18.70;1.00
1504;DHT22;743;47.076;15.494;2022-10-16T08:36:18;18.90;1.00
1504;DHT22;743;47.076;15.494;2022-10-16T08:38:47;19.00;1.00
1504;DHT22;743;47.076;15.494;2022-10-16T08:41:23;19.00;1.00
1504;DHT22;743;47.076;15.494;2022-10-16T08:43:57;19.10;1.00
1504;DHT22;743;47.076;15.494;2022-10-16T08:46:35;18.80;1.00
1504;DHT22;743;47.076;15.494;2022-10-16T08:51:35;18.90;1.00
1504;DHT22;743;47.076;15.494;2022-10-16T08:54:03;18.80;1.00
1504;DHT22;743;47.076;15.494;2022-10-16T08:56:31;18.90;1.00
1504;DHT22;743;47.076;15.494;2022-10-16T08:58:59;19.40;1.00
1504;DHT22;743;47.076;15.494;2022-10-16T09:01:32;18.90;1.00
1504;DHT22;743;47.076;15.494;2022-10-16T09:04:22;19.10;1.00
1504;DHT22;743;47.076;15.494;2022-10-16T09:07:04;19.20;1.00
1504;DHT22;743;47.076;15.494;2022-10-16T09:09:43;19.30;1.00
1504;DHT22;743;47.076;15.494;2022-10-16T09:12:16;19.20;1.00
1504;DHT22;743;47.076;15.494;2022-10-16T09:14:58;19.30;1.00
1504;DHT22;743;47.076;15.494;2022-10-16T09:17:34;19.30;1.00
1504;DHT22;743;47.076;15.494;2022-10-16T09:20:18;19.20;1.00
1504;DHT22;743;47.076;15.494;2022-10-16T09:25:18;19.50;1.00
1504;DHT22;743;47.076;15.494;2022-10-16T09:27:48;19.70;1.00
1504;DHT22;743;47.076;15.494;2022-10-16T09:30:17;19.60;1.00
1504;DHT22;743;47.076;15.494;2022-10-16T09:32:45;19.60;1.00
1504;DHT22;743;47.076;15.494;2022-10-16T09:37:41;20.10;1.00
1504;DHT22;743;47.076;15.494;2022-10-16T09:40:12;19.90;1.00
1504;DHT22;743;47.076;15.494;2022-10-16T09:42:41;19.80;1.00
1504;DHT22;743;47.076;15.494;2022-10-16T09:45:20;20.30;1.00
1504;DHT22;743;47.076;15.494;2022-10-16T09:47:47;20.20;1.00
1504;DHT22;743;47.076;15.494;2022-10-16T09:50:22;19.90;1.00
1504;DHT22;743;47.076;15.494;2022-10-16T09:52:50;20.20;1.00
1504;DHT22;743;47.076;15.494;2022-10-16T09:55:24;20.40;1.00
1504;DHT22;743;47.076;15.494;2022-10-16T10:01:15;19.70;1.00
1504;DHT22;743;47.076;15.494;2022-10-16T10:03:42;21.10;1.00
1504;DHT22;743;47.076;15.494;2022-10-16T10:06:23;21.60;1.00
1504;DHT22;743;47.076;15.494;2022-10-16T10:08:55;22.00;1.00
1504;DHT22;743;47.076;15.494;2022-10-16T10:11:36;21.80;1.00
1504;DHT22;743;47.076;15.494;2022-10-16T10:14:04;21.60;1.00
1504;DHT22;743;47.076;15.494;2022-10-16T10:16:34;21.60;1.00
1504;DHT22;743;47.076;15.494;2022-10-16T10:19:12;21.60;1.00
1504;DHT22;743;47.076;15.494;2022-10-16T10:21:40;21.40;1.00
1504;DHT22;743;47.076;15.494;2022-10-16T10:24:09;21.20;1.00
1504;DHT22;743;47.076;15.494;2022-10-16T10:26:53;21.10;1.00
1504;DHT22;743;47.076;15.494;2022-10-16T10:29:26;21.20;1.00
1504;DHT22;743;47.076;15.494;2022-10-16T10:32:07;21.30;1.00
1504;DHT22;743;47.076;15.494;2022-10-16T10:34:41;21.30;1.00
1504;DHT22;743;47.076;15.494;2022-10-16T10:37:17;21.40;1.00
1504;DHT22;743;47.076;15.494;2022-10-16T10:39:53;21.40;1.00
1504;DHT22;743;47.076;15.494;2022-10-16T10:42:25;21.40;1.00
1504;DHT22;743;47.076;15.494;2022-10-16T10:45:03;21.50;1.00
1504;DHT22;743;47.076;15.494;2022-10-16T10:47:41;21.70;1.00
1504;DHT22;743;47.076;15.494;2022-10-16T10:50:14;21.60;1.00
1504;DHT22;743;47.076;15.494;2022-10-16T10:52:49;21.70;1.00
1504;DHT22;743;47.076;15.494;2022-10-16T10:55:20;21.70;1.00
1504;DHT22;743;47.076;15.494;2022-10-16T10:58:00;21.50;1.00
1504;DHT22;743;47.076;15.494;2022-10-16T11:00:33;21.40;1.00
1504;DHT22;743;47.076;15.494;2022-10-16T11:03:12;21.80;1.00
1504;DHT22;743;47.076;15.494;2022-10-16T11:05:43;21.80;1.00
1504;DHT22;743;47.076;15.494;2022-10-16T11:08:18;21.80;1.00
1504;DHT22;743;47.076;15.494;2022-10-16T11:10:49;21.80;1.00
1504;DHT22;743;47.076;15.494;2022-10-16T11:13:20;21.90;1.00
1504;DHT22;743;47.076;15.494;2022-10-16T11:15:51;22.00;1.00
1504;DHT22;743;47.076;15.494;2022-10-16T11:18:24;22.00;1.00
1504;DHT22;743;47.076;15.494;2022-10-16T11:20:54;22.10;1.00
1504;DHT22;743;47.076;15.494;2022-10-16T11:23:25;22.10;1.00
1504;DHT22;743;47.076;15.494;2022-10-16T11:25:54;22.30;1.00
1504;DHT22;743;47.076;15.494;2022-10-16T11:28:23;22.50;1.00
1504;DHT22;743;47.076;15.494;2022-10-16T11:30:55;22.70;1.00
1504;DHT22;743;47.076;15.494;2022-10-16T11:33:28;22.70;1.00
1504;DHT22;743;47.076;15.494;2022-10-16T11:36:00;22.70;1.00
1504;DHT22;743;47.076;15.494;2022-10-16T11:38:32;22.90;1.00
1504;DHT22;743;47.076;15.494;2022-10-16T11:41:03;22.90;1.00
1504;DHT22;743;47.076;15.494;2022-10-16T11:43:32;23.00;1.00
1504;DHT22;743;47.076;15.494;2022-10-16T11:46:03;23.20;1.00
1504;DHT22;743;47.076;15.494;2022-10-16T11:48:36;23.30;1.00
1504;DHT22;743;47.076;15.494;2022-10-16T11:51:08;23.30;1.00
1504;DHT22;743;47.076;15.494;2022-10-16T11:53:42;23.40;1.00
1504;DHT22;743;47.076;15.494;2022-10-16T11:56:13;23.50;1.00
1504;DHT22;743;47.076;15.494;2022-10-16T11:58:49;23.50;1.00
1504;DHT22;743;47.076;15.494;2022-10-16T12:01:19;23.70;1.00
1504;DHT22;743;47.076;15.494;2022-10-16T12:03:59;23.70;1.00
1504;DHT22;743;47.076;15.494;2022-10-16T12:06:30;24.00;1.00
1504;DHT22;743;47.076;15.494;2022-10-16T12:08:58;24.00;1.00
1504;DHT22;743;47.076;15.494;2022-10-16T12:11:35;24.00;1.00
1504;DHT22;743;47.076;15.494;2022-10-16T12:14:04;24.20;1.00
1504;DHT22;743;47.076;15.494;2022-10-16T12:16:31;24.30;1.00
1504;DHT22;743;47.076;15.494;2022-10-16T12:19:09;24.20;1.00
1504;DHT22;743;47.076;15.494;2022-10-16T12:21:37;24.20;1.00
1504;DHT22;743;47.076;15.494;2022-10-16T12:24:07;24.30;1.00
1504;DHT22;743;47.076;15.494;2022-10-16T12:26:46;24.30;1.00
1504;DHT22;743;47.076;15.494;2022-10-16T12:29:14;24.30;1.00
1504;DHT22;743;47.076;15.494;2022-10-16T12:31:49;24.30;1.00
1504;DHT22;743;47.076;15.494;2022-10-16T12:34:21;24.40;1.00
1504;DHT22;743;47.076;15.494;2022-10-16T12:36:49;24.40;1.00
1504;DHT22;743;47.076;15.494;2022-10-16T12:39:22;24.50;1.00
1504;DHT22;743;47.076;15.494;2022-10-16T12:42:02;24.40;1.00
1504;DHT22;743;47.076;15.494;2022-10-16T12:44:33;24.80;1.00
1504;DHT22;743;47.076;15.494;2022-10-16T12:47:01;24.70;1.00
1504;DHT22;743;47.076;15.494;2022-10-16T12:49:37;24.80;1.00
1504;DHT22;743;47.076;15.494;2022-10-16T12:54:50;24.80;1.00
1504;DHT22;743;47.076;15.494;2022-10-16T12:57:24;25.00;1.00
1504;DHT22;743;47.076;15.494;2022-10-16T12:59:59;25.20;1.00
1504;DHT22;743;47.076;15.494;2022-10-16T13:05:24;25.30;1.00
1504;DHT22;743;47.076;15.494;2022-10-16T13:07:57;25.20;1.00
1504;DHT22;743;47.076;15.494;2022-10-16T13:10:40;25.50;1.00
1504;DHT22;743;47.076;15.494;2022-10-16T13:13:24;25.50;1.00
1504;DHT22;743;47.076;15.494;2022-10-16T13:16:07;25.50;1.00
1504;DHT22;743;47.076;15.494;2022-10-16T13:18:38;25.60;1.00
1504;DHT22;743;47.076;15.494;2022-10-16T13:21:16;25.70;1.00
1504;DHT22;743;47.076;15.494;2022-10-16T13:23:47;25.70;1.00
1504;DHT22;743;47.076;15.494;2022-10-16T13:26:21;25.60;1.00
1504;DHT22;743;47.076;15.494;2022-10-16T13:28:50;25.70;1.00
1504;DHT22;743;47.076;15.494;2022-10-16T13:31:18;25.70;1.00
1504;DHT22;743;47.076;15.494;2022-10-16T13:33:47;25.50;1.00
1504;DHT22;743;47.076;15.494;2022-10-16T13:36:23;25.70;1.00
1504;DHT22;743;47.076;15.494;2022-10-16T13:39:06;25.70;1.00
1504;DHT22;743;47.076;15.494;2022-10-16T13:41:34;25.90;1.00
1504;DHT22;743;47.076;15.494;2022-10-16T13:44:02;25.90;1.00
1504;DHT22;743;47.076;15.494;2022-10-16T13:46:29;25.80;1.00
1504;DHT22;743;47.076;15.494;2022-10-16T13:49:01;25.90;1.00
1504;DHT22;743;47.076;15.494;2022-10-16T13:51:32;25.80;1.00
1504;DHT22;743;47.076;15.494;2022-10-16T13:53:59;26.00;1.00
1504;DHT22;743;47.076;15.494;2022-10-16T13:56:33;26.00;1.00
1504;DHT22;743;47.076;15.494;2022-10-16T13:59:01;26.20;1.00
1504;DHT22;743;47.076;15.494;2022-10-16T14:01:29;26.20;1.00
1504;DHT22;743;47.076;15.494;2022-10-16T14:04:02;26.20;1.00
1504;DHT22;743;47.076;15.494;2022-10-16T14:06:33;26.20;1.00
1504;DHT22;743;47.076;15.494;2022-10-16T14:09:03;26.40;1.00
1504;DHT22;743;47.076;15.494;2022-10-16T14:11:34;26.70;1.00
1504;DHT22;743;47.076;15.494;2022-10-16T14:14:05;26.80;1.00
1504;DHT22;743;47.076;15.494;2022-10-16T14:16:32;26.80;1.00
1504;DHT22;743;47.076;15.494;2022-10-16T14:19:01;26.80;1.00
1504;DHT22;743;47.076;15.494;2022-10-16T14:21:29;27.10;1.00
1504;DHT22;743;47.076;15.494;2022-10-16T14:23:58;27.40;1.00
1504;DHT22;743;47.076;15.494;2022-10-16T14:26:26;27.80;1.00
1504;DHT22;743;47.076;15.494;2022-10-16T14:29:03;27.50;1.00
1504;DHT22;743;47.076;15.494;2022-10-16T14:31:32;27.80;1.00
1504;DHT22;743;47.076;15.494;2022-10-16T14:34:01;28.00;1.00
1504;DHT22;743;47.076;15.494;2022-10-16T14:36:33;28.10;1.00
1504;DHT22;743;47.076;15.494;2022-10-16T14:39:04;28.10;1.00
1504;DHT22;743;47.076;15.494;2022-10-16T14:41:32;27.90;1.00
1504;DHT22;743;47.076;15.494;2022-10-16T14:44:01;28.30;1.00
1504;DHT22;743;47.076;15.494;2022-10-16T14:46:32;28.30;1.00
1504;DHT22;743;47.076;15.494;2022-10-16T14:49:03;28.20;1.00
1504;DHT22;743;47.076;15.494;2022-10-16T14:51:32;27.90;1.00
1504;DHT22;743;47.076;15.494;2022-10-16T14:53:59;27.30;1.00
1504;DHT22;743;47.076;15.494;2022-10-16T14:56:29;27.00;1.00
1504;DHT22;743;47.076;15.494;2022-10-16T14:58:59;26.60;1.00
1504;DHT22;743;47.076;15.494;2022-10-16T15:01:28;26.50;1.00
1504;DHT22;743;47.076;15.494;2022-10-16T15:03:55;26.20;1.00
1504;DHT22;743;47.076;15.494;2022-10-16T15:06:23;26.00;1.00
1504;DHT22;743;47.076;15.494;2022-10-16T15:08:52;25.70;1.00
1504;DHT22;743;47.076;15.494;2022-10-16T15:11:19;25.30;1.00
1504;DHT22;743;47.076;15.494;2022-10-16T15:13:53;24.70;1.00
1504;DHT22;743;47.076;15.494;2022-10-16T15:16:20;24.30;1.00
1504;DHT22;743;47.076;15.494;2022-10-16T15:18:47;24.10;1.00
1504;DHT22;743;47.076;15.494;2022-10-16T15:21:20;23.60;1.00
1504;DHT22;743;47.076;15.494;2022-10-16T15:23:49;23.20;1.00
1504;DHT22;743;47.076;15.494;2022-10-16T15:26:17;23.10;1.00
1504;DHT22;743;47.076;15.494;2022-10-16T15:28:44;23.00;1.00
1504;DHT22;743;47.076;15.494;2022-10-16T15:31:13;22.70;1.00
1504;DHT22;743;47.076;15.494;2022-10-16T15:33:40;23.00;1.00
1504;DHT22;743;47.076;15.494;2022-10-16T15:36:24;23.20;1.00
1504;DHT22;743;47.076;15.494;2022-10-16T15:38:51;23.00;1.00
1504;DHT22;743;47.076;15.494;2022-10-16T15:41:19;22.80;1.00
1504;DHT22;743;47.076;15.494;2022-10-16T15:43:48;22.60;1.00
1504;DHT22;743;47.076;15.494;2022-10-16T15:46:19;22.40;1.00
1504;DHT22;743;47.076;15.494;2022-10-16T15:48:47;22.70;1.00
1504;DHT22;743;47.076;15.494;2022-10-16T15:51:16;22.30;1.00
1504;DHT22;743;47.076;15.494;2022-10-16T15:53:46;22.20;1.00
1504;DHT22;743;47.076;15.494;2022-10-16T15:56:17;22.10;1.00
1504;DHT22;743;47.076;15.494;2022-10-16T15:58:45;21.90;1.00
1504;DHT22;743;47.076;15.494;2022-10-16T16:01:16;21.80;1.00
1504;DHT22;743;47.076;15.494;2022-10-16T16:03:45;21.60;1.00
1504;DHT22;743;47.076;15.494;2022-10-16T16:06:13;21.10;1.00
1504;DHT22;743;47.076;15.494;2022-10-16T16:08:40;21.00;1.00
1504;DHT22;743;47.076;15.494;2022-10-16T16:11:08;20.80;1.00
1504;DHT22;743;47.076;15.494;2022-10-16T16:13:35;21.00;1.00
1504;DHT22;743;47.076;15.494;2022-10-16T16:16:05;21.70;1.00
1504;DHT22;743;47.076;15.494;2022-10-16T16:18:32;22.10;1.00
1504;DHT22;743;47.076;15.494;2022-10-16T16:21:03;22.00;1.00
1504;DHT22;743;47.076;15.494;2022-10-16T16:23:39;21.70;1.00
1504;DHT22;743;47.076;15.494;2022-10-16T16:26:09;21.10;1.00
1504;DHT22;743;47.076;15.494;2022-10-16T16:28:38;20.60;1.00
1504;DHT22;743;47.076;15.494;2022-10-16T16:31:05;20.60;1.00
1504;DHT22;743;47.076;15.494;2022-10-16T16:33:32;20.70;1.00
1504;DHT22;743;47.076;15.494;2022-10-16T16:35:59;20.80;1.00
1504;DHT22;743;47.076;15.494;2022-10-16T16:38:28;21.00;1.00
1504;DHT22;743;47.076;15.494;2022-10-16T16:40:55;21.50;1.00
1504;DHT22;743;47.076;15.494;2022-10-16T16:43:24;21.80;1.00
1504;DHT22;743;47.076;15.494;2022-10-16T16:45:54;21.90;1.00
1504;DHT22;743;47.076;15.494;2022-10-16T16:48:21;21.50;1.00
1504;DHT22;743;47.076;15.494;2022-10-16T16:50:49;20.60;1.00
1504;DHT22;743;47.076;15.494;2022-10-16T16:53:17;20.50;1.00
1504;DHT22;743;47.076;15.494;2022-10-16T16:55:48;19.90;1.00
1504;DHT22;743;47.076;15.494;2022-10-16T16:58:16;19.90;1.00
1504;DHT22;743;47.076;15.494;2022-10-16T17:00:47;19.60;1.00
1504;DHT22;743;47.076;15.494;2022-10-16T17:03:15;19.40;1.00
1504;DHT22;743;47.076;15.494;2022-10-16T17:05:43;19.30;1.00
1504;DHT22;743;47.076;15.494;2022-10-16T17:08:10;19.20;1.00
1504;DHT22;743;47.076;15.494;2022-10-16T17:10:42;19.40;1.00
1504;DHT22;743;47.076;15.494;2022-10-16T17:13:11;19.10;1.00
1504;DHT22;743;47.076;15.494;2022-10-16T17:15:45;19.00;1.00
1504;DHT22;743;47.076;15.494;2022-10-16T17:18:15;19.00;1.00
1504;DHT22;743;47.076;15.494;2022-10-16T17:20:43;18.90;1.00
1504;DHT22;743;47.076;15.494;2022-10-16T17:23:12;18.80;1.00
1504;DHT22;743;47.076;15.494;2022-10-16T17:25:40;18.50;1.00
1504;DHT22;743;47.076;15.494;2022-10-16T17:28:09;18.50;1.00
1504;DHT22;743;47.076;15.494;2022-10-16T17:30:39;18.40;1.00
1504;DHT22;743;47.076;15.494;2022-10-16T17:33:08;18.50;1.00
1504;DHT22;743;47.076;15.494;2022-10-16T17:35:36;18.60;1.00
1504;DHT22;743;47.076;15.494;2022-10-16T17:38:07;18.70;1.00
1504;DHT22;743;47.076;15.494;2022-10-16T17:40:35;18.70;1.00
1504;DHT22;743;47.076;15.494;2022-10-16T17:43:04;18.50;1.00
1504;DHT22;743;47.076;15.494;2022-10-16T17:45:43;18.50;1.00
1504;DHT22;743;47.076;15.494;2022-10-16T17:48:12;18.30;1.00
1504;DHT22;743;47.076;15.494;2022-10-16T17:50:40;18.30;1.00
1504;DHT22;743;47.076;15.494;2022-10-16T17:53:11;18.30;1.00
1504;DHT22;743;47.076;15.494;2022-10-16T17:55:42;18.30;1.00
1504;DHT22;743;47.076;15.494;2022-10-16T17:58:09;18.30;1.00
1504;DHT22;743;47.076;15.494;2022-10-16T18:00:38;18.20;1.00
1504;DHT22;743;47.076;15.494;2022-10-16T18:03:10;18.10;1.00
1504;DHT22;743;47.076;15.494;2022-10-16T18:05:40;17.80;1.00
1504;DHT22;743;47.076;15.494;2022-10-16T18:08:08;18.10;1.00
1504;DHT22;743;47.076;15.494;2022-10-16T18:10:36;17.90;1.00